Time;durP1;ratioP1;P1;durP2;ratioP2;P2;SDS_P1;SDS_P2;PMS_P1;PMS_P2;Temp;Humidity;BMP_temperature;BMP_pressure;BME280_temperature;BME280_humidity;BME280_pressure;Samples;Min_cycle;Max_cycle;Signal;HPM_P1;HPM_P2
2022/04/10 03:23:50;;;;;;;6.90;1.55;;;21.40;85.00;;;;;;5089330;28;20074;-71
2022/04/10 03:26:17;;;;;;;5.05;1.40;;;21.40;85.10;;;;;;5091009;28;20032;-71
2022/04/10 03:28:44;;;;;;;4.43;1.42;;;21.40;84.50;;;;;;5090989;28;20097;-70
2022/04/10 03:31:11;;;;;;;6.78;1.38;;;21.50;83.80;;;;;;5092060;28;20031;-70
2022/04/10 03:33:38;;;;;;;7.63;1.50;;;21.50;83.10;;;;;;5092026;28;20033;-70
2022/04/10 03:36:06;;;;;;;6.82;1.50;;;21.50;83.60;;;;;;5090679;28;20040;-69
2022/04/10 03:38:33;;;;;;;5.65;1.60;;;21.50;84.20;;;;;;5092664;28;20060;-71
2022/04/10 03:41:00;;;;;;;6.65;1.83;;;21.50;84.80;;;;;;5091081;28;20044;-72
2022/04/10 03:43:27;;;;;;;4.88;1.83;;;21.40;85.00;;;;;;5091054;28;20028;-72
2022/04/10 03:45:54;;;;;;;11.98;2.45;;;21.40;85.20;;;;;;5086215;28;20024;-71
2022/04/10 03:48:22;;;;;;;9.02;1.70;;;21.30;85.70;;;;;;5089813;28;20401;-71
2022/04/10 03:50:49;;;;;;;9.30;1.98;;;21.30;85.00;;;;;;5090835;28;20394;-72
2022/04/10 03:53:16;;;;;;;6.38;2.20;;;21.30;85.10;;;;;;5090886;28;20040;-72
2022/04/10 03:55:44;;;;;;;7.88;1.60;;;21.30;85.50;;;;;;5091030;28;20526;-69
2022/04/10 03:58:11;;;;;;;10.68;1.60;;;21.30;85.90;;;;;;5091800;28;20036;-71
2022/04/10 04:00:38;;;;;;;7.90;1.77;;;21.30;85.90;;;;;;5073170;28;20040;-73
2022/04/10 04:03:05;;;;;;;9.90;1.98;;;21.30;86.40;;;;;;5090473;28;20040;-72
2022/04/10 04:05:33;;;;;;;6.05;1.63;;;21.30;86.70;;;;;;5091189;28;20032;-70
2022/04/10 04:08:01;;;;;;;4.43;1.83;;;21.30;86.50;;;;;;5095592;28;20032;-70
2022/04/10 04:10:28;;;;;;;6.65;1.60;;;21.30;86.60;;;;;;5089481;28;20028;-69
2022/04/10 04:12:55;;;;;;;9.07;1.67;;;21.30;86.60;;;;;;5088393;28;20040;-70
2022/04/10 04:15:22;;;;;;;8.90;1.52;;;21.30;86.10;;;;;;5089160;28;20035;-70
2022/04/10 04:17:49;;;;;;;11.95;2.15;;;21.30;85.30;;;;;;5092735;28;20039;-71
2022/04/10 04:20:17;;;;;;;12.10;1.83;;;21.40;86.10;;;;;;5089862;28;20055;-71
2022/04/10 04:22:44;;;;;;;12.00;2.75;;;21.40;85.90;;;;;;5071692;28;20056;-71
2022/04/10 04:25:11;;;;;;;9.45;2.05;;;21.40;85.50;;;;;;5111028;27;20039;-70
2022/04/10 04:27:38;;;;;;;10.75;2.00;;;21.40;85.80;;;;;;5096556;28;20035;-70
2022/04/10 04:30:06;;;;;;;9.32;2.17;;;21.40;86.20;;;;;;5105694;28;20119;-71
2022/04/10 04:32:33;;;;;;;8.70;2.38;;;21.40;86.10;;;;;;5100614;28;20044;-70
2022/04/10 04:35:00;;;;;;;12.77;2.15;;;21.40;85.20;;;;;;5097969;28;20441;-70
2022/04/10 04:37:28;;;;;;;6.13;1.63;;;21.40;84.70;;;;;;5083132;28;20036;-71
2022/04/10 04:39:55;;;;;;;9.30;2.22;;;21.40;85.20;;;;;;5105829;28;20446;-72
2022/04/10 04:42:22;;;;;;;10.23;2.22;;;21.40;85.50;;;;;;5097692;28;20414;-72
2022/04/10 04:44:49;;;;;;;7.20;1.40;;;21.30;85.40;;;;;;5104022;28;20039;-72
2022/04/10 04:47:17;;;;;;;7.45;1.45;;;21.30;85.50;;;;;;5105031;28;20086;-71
2022/04/10 04:49:44;;;;;;;7.93;1.73;;;21.30;85.30;;;;;;5103589;28;20032;-71
2022/04/10 05:38:30;;;;;;;8.02;1.88;;;21.50;82.30;;;;;;5120108;27;20637;-72
2022/04/10 05:40:58;;;;;;;6.15;1.63;;;21.50;81.80;;;;;;5092090;28;20122;-72
2022/04/10 05:43:25;;;;;;;7.47;1.80;;;21.50;81.40;;;;;;5094411;28;20159;-72
2022/04/10 05:45:52;;;;;;;5.13;1.50;;;21.50;81.80;;;;;;5082257;28;20375;-72
2022/04/10 05:48:20;;;;;;;8.75;2.17;;;21.50;81.60;;;;;;5074056;28;20037;-71
2022/04/10 05:50:47;;;;;;;5.75;1.60;;;21.50;81.60;;;;;;5091507;28;20029;-71
2022/04/10 05:53:14;;;;;;;5.82;1.70;;;21.50;81.80;;;;;;5073625;28;20036;-72
2022/04/10 05:55:41;;;;;;;5.20;1.42;;;21.50;81.90;;;;;;5073917;28;20051;-72
2022/04/10 05:58:09;;;;;;;8.40;1.92;;;21.50;82.20;;;;;;5074013;28;20040;-70
2022/04/10 06:00:36;;;;;;;7.28;1.50;;;21.50;82.30;;;;;;5083419;28;20551;-69
2022/04/10 06:03:03;;;;;;;8.80;2.25;;;21.50;81.90;;;;;;5079331;28;20105;-70
2022/04/10 06:05:31;;;;;;;10.05;1.80;;;21.50;82.50;;;;;;5085915;28;20025;-70
2022/04/10 06:07:58;;;;;;;10.23;1.80;;;21.40;82.60;;;;;;5084030;28;20047;-70
2022/04/10 06:10:25;;;;;;;9.65;2.15;;;21.40;82.10;;;;;;5081930;28;20534;-71
2022/04/10 06:12:52;;;;;;;5.55;1.30;;;21.50;82.00;;;;;;5086745;28;20036;-69
2022/04/10 06:15:20;;;;;;;7.47;2.03;;;21.50;82.50;;;;;;5097259;28;20056;-69
2022/04/10 06:17:47;;;;;;;8.00;1.75;;;21.50;82.60;;;;;;5091451;28;20486;-69
2022/04/10 06:20:14;;;;;;;6.75;1.73;;;21.50;82.60;;;;;;5092925;28;20128;-68
2022/04/10 06:22:42;;;;;;;7.47;1.77;;;21.40;83.10;;;;;;5088141;28;20101;-69
2022/04/10 06:25:09;;;;;;;7.50;1.70;;;21.50;83.00;;;;;;5088617;28;20364;-70
2022/04/10 06:27:36;;;;;;;6.18;1.85;;;21.50;82.90;;;;;;5093345;28;20061;-70
2022/04/10 06:30:04;;;;;;;8.63;1.98;;;21.40;82.80;;;;;;5083980;28;20065;-70
2022/04/10 06:32:31;;;;;;;7.22;1.63;;;21.50;82.40;;;;;;5088409;28;20035;-69
2022/04/10 06:34:58;;;;;;;5.20;1.52;;;21.50;82.10;;;;;;5087558;28;20032;-68
2022/04/10 06:37:26;;;;;;;11.20;2.08;;;21.40;82.30;;;;;;5093876;28;20088;-69
2022/04/10 06:39:53;;;;;;;6.10;1.45;;;21.50;82.70;;;;;;5084256;28;20072;-70
2022/04/10 06:42:20;;;;;;;7.53;1.85;;;21.40;82.50;;;;;;5082484;28;20044;-71
2022/04/10 06:44:48;;;;;;;7.32;1.70;;;21.40;82.60;;;;;;5071576;28;20386;-72
2022/04/10 06:47:15;;;;;;;4.10;1.40;;;21.40;82.70;;;;;;5090803;28;20119;-70
2022/04/10 06:49:42;;;;;;;8.95;1.95;;;21.40;82.70;;;;;;5087690;28;20036;-72
2022/04/10 06:52:09;;;;;;;5.72;2.08;;;21.40;82.90;;;;;;5090280;28;20032;-70
2022/04/10 06:54:36;;;;;;;7.32;1.85;;;21.30;82.70;;;;;;5074582;28;20501;-70
2022/04/10 06:57:03;;;;;;;7.05;1.60;;;21.40;82.70;;;;;;5092150;28;20101;-72
2022/04/10 06:59:31;;;;;;;10.77;3.33;;;21.30;82.80;;;;;;5083009;28;20020;-71
2022/04/10 07:01:58;;;;;;;10.68;3.00;;;21.40;82.90;;;;;;5088399;28;20055;-69
2022/04/10 07:04:25;;;;;;;8.38;2.17;;;21.40;82.90;;;;;;5088931;28;20092;-69
2022/04/10 07:06:52;;;;;;;4.15;1.70;;;21.40;83.00;;;;;;5090435;28;20032;-69
2022/04/10 07:33:17;;;;;;;11.80;2.33;;;21.20;84.10;;;;;;5112846;27;20069;-71
2022/04/10 07:35:44;;;;;;;10.00;2.15;;;21.20;84.50;;;;;;5124936;27;20185;-69
2022/04/10 07:38:11;;;;;;;9.20;1.80;;;21.30;84.80;;;;;;5129691;27;20147;-70
2022/04/10 07:40:39;;;;;;;4.97;1.65;;;21.20;85.10;;;;;;5133078;27;20023;-71
2022/04/10 07:43:06;;;;;;;10.88;2.25;;;21.20;85.20;;;;;;5131245;27;20046;-69
2022/04/10 07:48:19;;;;;;;5.22;1.50;;;21.10;85.70;;;;;;5119811;27;20039;-73
2022/04/10 07:50:46;;;;;;;6.35;1.95;;;21.10;85.80;;;;;;5113006;27;20039;-72
2022/04/10 07:53:14;;;;;;;8.90;1.95;;;21.10;85.90;;;;;;5128294;27;20051;-73
2022/04/10 07:55:41;;;;;;;6.97;1.77;;;21.00;86.40;;;;;;5136197;27;20481;-70
2022/04/10 07:58:08;;;;;;;7.90;1.75;;;21.10;86.30;;;;;;5131418;27;20035;-72
2022/04/10 08:00:35;;;;;;;7.72;1.67;;;21.10;86.10;;;;;;5101893;27;20039;-72
2022/04/10 08:03:03;;;;;;;6.18;2.15;;;21.00;86.20;;;;;;5109684;27;20043;-71
2022/04/10 08:05:30;;;;;;;5.43;1.92;;;21.00;86.40;;;;;;5129924;27;20031;-72
2022/04/10 08:07:57;;;;;;;10.75;2.03;;;21.00;86.50;;;;;;5123962;27;20019;-72
2022/04/10 08:10:24;;;;;;;6.10;1.80;;;21.00;86.50;;;;;;5130842;27;20082;-72
2022/04/10 08:12:52;;;;;;;8.30;1.88;;;21.00;86.70;;;;;;5131738;27;20140;-73
2022/04/10 08:15:19;;;;;;;8.98;1.63;;;21.00;86.70;;;;;;5144099;27;20038;-73
2022/04/10 08:17:46;;;;;;;8.45;2.72;;;20.90;86.90;;;;;;5147857;27;20504;-72
2022/04/10 08:20:13;;;;;;;5.25;2.13;;;20.90;87.00;;;;;;5131056;27;20520;-72
2022/04/10 08:22:40;;;;;;;9.85;2.88;;;20.80;87.00;;;;;;5141529;27;20782;-72
2022/04/10 08:25:12;;;;;;;7.30;2.38;;;20.90;87.20;;;;;;5127928;27;20064;-72
2022/04/10 08:27:40;;;;;;;5.80;2.03;;;20.80;87.00;;;;;;5120930;27;20051;-72
2022/04/10 08:30:12;;;;;;;7.13;1.85;;;20.80;87.10;;;;;;5129943;27;20445;-72
2022/04/10 08:32:42;;;;;;;7.85;2.17;;;20.80;87.30;;;;;;5141929;27;20515;-72
2022/04/10 08:49:17;;;;;;;8.70;1.98;;;20.80;87.80;;;;;;5071670;28;20070;-73
2022/04/10 08:51:44;;;;;;;6.35;1.67;;;20.80;87.90;;;;;;5086829;28;20071;-74
2022/04/10 08:54:11;;;;;;;6.05;1.75;;;20.80;88.00;;;;;;5070652;28;20036;-72
2022/04/10 08:56:38;;;;;;;6.13;1.67;;;20.80;87.90;;;;;;5054947;28;20379;-71
2022/04/10 08:59:05;;;;;;;7.90;2.03;;;20.80;88.00;;;;;;5095812;28;20032;-70
2022/04/10 09:01:33;;;;;;;6.50;2.15;;;20.80;88.10;;;;;;5052131;28;20444;-73
2022/04/10 09:04:00;;;;;;;5.88;1.90;;;20.80;88.10;;;;;;5089631;28;20024;-72
2022/04/10 09:06:27;;;;;;;6.88;2.50;;;20.80;88.20;;;;;;5088532;28;20496;-71
2022/04/10 09:09:12;;;;;;;9.38;2.30;;;20.80;88.30;;;;;;5088257;28;20032;-70
2022/04/10 09:11:40;;;;;;;9.77;2.42;;;20.80;88.30;;;;;;5066174;28;20413;-71
2022/04/10 09:14:07;;;;;;;9.00;2.17;;;20.80;88.40;;;;;;5085224;28;20090;-73
2022/04/10 09:16:34;;;;;;;8.70;2.17;;;20.80;88.40;;;;;;5066101;28;20118;-71
2022/04/10 09:19:09;;;;;;;7.82;2.50;;;20.80;88.40;;;;;;5050952;28;20040;-71
2022/04/10 09:21:38;;;;;;;9.55;2.40;;;20.80;88.40;;;;;;5089250;28;20130;-72
2022/04/10 09:24:09;;;;;;;10.55;2.58;;;20.80;88.50;;;;;;5089664;28;20047;-72
2022/04/10 09:26:52;;;;;;;8.13;2.10;;;20.80;88.60;;;;;;5098182;28;20124;-73
2022/04/10 09:29:20;;;;;;;9.27;2.30;;;20.70;88.80;;;;;;5089501;28;20089;-72
2022/04/10 09:31:48;;;;;;;12.38;2.33;;;20.70;88.80;;;;;;5089077;28;20123;-72
2022/04/10 09:34:19;;;;;;;9.27;2.00;;;20.70;88.80;;;;;;5087822;28;20111;-72
2022/04/10 09:37:00;;;;;;;10.80;2.35;;;20.70;89.00;;;;;;5089053;28;20024;-74
2022/04/10 09:39:46;;;;;;;9.30;2.20;;;20.70;89.20;;;;;;5070110;28;20115;-73
2022/04/10 09:42:14;;;;;;;11.43;2.28;;;20.70;89.10;;;;;;5079440;28;20369;-76
2022/04/10 09:44:41;;;;;;;8.40;2.25;;;20.70;89.20;;;;;;5072050;28;20124;-77
2022/04/10 09:47:09;;;;;;;10.02;2.08;;;20.60;89.20;;;;;;5061307;28;20024;-76
2022/04/10 09:52:27;;;;;;;11.15;2.10;;;20.70;89.20;;;;;;5120948;27;20466;-76
2022/04/10 09:54:54;;;;;;;6.47;2.00;;;20.60;89.30;;;;;;5125646;28;20085;-75
2022/04/10 09:57:22;;;;;;;8.48;2.30;;;20.60;89.40;;;;;;5112118;27;20039;-75
2022/04/10 09:59:50;;;;;;;10.18;2.80;;;20.60;89.30;;;;;;5130109;27;20036;-73
2022/04/10 10:02:23;;;;;;;10.32;2.30;;;20.60;89.30;;;;;;5118691;27;20092;-73
2022/04/10 10:04:52;;;;;;;8.73;2.03;;;20.60;89.60;;;;;;5123977;27;20520;-71
2022/04/10 10:07:20;;;;;;;5.90;1.80;;;20.50;89.50;;;;;;5150670;27;20084;-71
2022/04/10 10:09:48;;;;;;;9.98;2.03;;;20.60;89.60;;;;;;5137727;27;20146;-74
2022/04/10 10:12:16;;;;;;;10.18;2.22;;;20.50;89.60;;;;;;5130861;28;20396;-76
2022/04/10 10:14:43;;;;;;;8.68;2.22;;;20.50;89.80;;;;;;5129438;27;20035;-78
2022/04/10 10:17:11;;;;;;;7.97;2.33;;;20.50;89.90;;;;;;5112711;28;20032;-77
2022/04/10 10:19:39;;;;;;;10.30;2.15;;;20.50;90.00;;;;;;5130272;28;20032;-76
2022/04/10 10:22:13;;;;;;;11.18;2.38;;;20.50;90.00;;;;;;5110391;28;20489;-78
2022/04/10 10:24:51;;;;;;;6.22;2.35;;;20.50;90.10;;;;;;5087404;27;20032;-74
2022/04/10 10:27:52;;;;;;;9.50;1.90;;;20.50;90.40;;;;;;5126375;27;20061;-76
2022/04/10 10:30:30;;;;;;;11.63;2.47;;;20.40;90.30;;;;;;5120571;27;20114;-80
2022/04/10 10:33:16;;;;;;;9.30;2.35;;;20.40;90.20;;;;;;5098127;27;20392;-76
2022/04/10 10:35:47;;;;;;;8.05;2.85;;;20.40;90.30;;;;;;5119202;27;20055;-75
2022/04/10 10:38:31;;;;;;;11.50;4.28;;;20.40;90.40;;;;;;5134892;27;20031;-77
2022/04/10 10:41:31;;;;;;;10.80;3.80;;;20.50;90.60;;;;;;5116762;27;20031;-77
2022/04/10 10:43:59;;;;;;;7.68;2.78;;;20.40;90.70;;;;;;5128679;27;20074;-75
2022/04/10 10:46:36;;;;;;;10.15;2.80;;;20.40;90.60;;;;;;5094653;28;20492;-76
2022/04/10 11:12:54;;;;;;;8.20;2.40;;;20.30;91.30;;;;;;5131828;27;20051;-78
2022/04/10 11:15:22;;;;;;;12.57;3.17;;;20.30;91.30;;;;;;5131108;27;20413;-77
2022/04/10 11:17:51;;;;;;;9.07;2.42;;;20.20;91.50;;;;;;5121355;27;20489;-76
2022/04/10 11:20:24;;;;;;;12.95;2.75;;;20.20;91.50;;;;;;5124131;27;20031;-77
2022/04/10 11:22:54;;;;;;;9.63;3.08;;;20.20;91.40;;;;;;5129176;27;20042;-76
2022/04/10 11:25:31;;;;;;;8.23;2.45;;;20.20;91.50;;;;;;5131985;27;20229;-76
2022/04/10 11:28:02;;;;;;;12.02;2.80;;;20.20;91.30;;;;;;5114390;27;20055;-77
2022/04/10 11:30:33;;;;;;;8.45;2.85;;;20.20;91.40;;;;;;5092036;27;20085;-77
2022/04/10 11:33:02;;;;;;;11.02;2.80;;;20.20;91.70;;;;;;5089204;27;20696;-77
2022/04/10 11:35:31;;;;;;;11.30;2.53;;;20.20;91.60;;;;;;5129448;27;20122;-76
2022/04/10 11:38:00;;;;;;;10.85;2.40;;;20.20;91.70;;;;;;5097626;27;20104;-76
2022/04/10 11:40:28;;;;;;;9.43;2.42;;;20.10;91.80;;;;;;5111773;27;20062;-76
2022/04/10 11:42:56;;;;;;;16.88;2.90;;;20.10;92.00;;;;;;5114154;27;20046;-76
2022/04/10 11:45:25;;;;;;;9.20;2.58;;;20.10;92.00;;;;;;5114507;27;20031;-76
2022/04/10 11:47:52;;;;;;;11.05;2.65;;;20.10;91.90;;;;;;5132961;27;20134;-76
2022/04/10 11:50:20;;;;;;;10.75;2.35;;;20.10;92.00;;;;;;5114129;27;20058;-76
2022/04/10 11:53:10;;;;;;;9.70;2.72;;;20.10;92.00;;;;;;5132681;27;20039;-76
2022/04/10 11:55:41;;;;;;;;;;;20.10;92.10;;;;;;5114667;27;20449;-76
2022/04/10 11:58:16;;;;;;;;;;;20.00;92.00;;;;;;5132805;27;19907;-76
2022/04/10 12:01:05;;;;;;;7.57;2.45;;;20.00;92.00;;;;;;5130035;27;19907;-76
2022/04/10 12:03:33;;;;;;;10.73;2.57;;;20.00;91.90;;;;;;5121779;27;20052;-77
2022/04/10 12:06:00;;;;;;;11.02;2.63;;;20.00;92.00;;;;;;5130211;27;20039;-76
2022/04/10 12:08:28;;;;;;;8.73;2.38;;;20.00;92.10;;;;;;5130402;27;20095;-76
2022/04/10 12:13:40;;;;;;;13.90;2.58;;;19.90;92.10;;;;;;5130054;27;20065;-77
2022/04/10 12:16:18;;;;;;;13.32;2.70;;;19.90;92.20;;;;;;5127965;27;20385;-76
2022/04/10 12:18:55;;;;;;;14.43;2.90;;;19.80;92.20;;;;;;5138514;27;20499;-76
2022/04/10 12:21:23;;;;;;;10.27;3.00;;;19.80;92.20;;;;;;5128298;27;20070;-76
2022/04/10 12:24:03;;;;;;;9.50;2.60;;;19.80;92.40;;;;;;5104632;27;20034;-77
2022/04/10 12:26:33;;;;;;;;;;;19.80;92.50;;;;;;5144740;27;20089;-76
2022/04/10 12:29:00;;;;;;;8.90;2.40;;;19.80;92.60;;;;;;5103568;27;19968;-76
2022/04/10 12:31:28;;;;;;;12.23;2.58;;;19.80;92.70;;;;;;5090134;28;20042;-77
2022/04/10 12:33:55;;;;;;;13.93;3.17;;;19.80;92.70;;;;;;5121869;27;20027;-77
2022/04/10 12:36:26;;;;;;;10.43;2.67;;;19.80;92.80;;;;;;5084985;27;20378;-77
2022/04/10 12:38:54;;;;;;;11.98;2.53;;;19.80;92.70;;;;;;5112599;27;20043;-78
2022/04/10 12:41:28;;;;;;;10.75;2.70;;;19.80;92.80;;;;;;5110289;27;20508;-77
2022/04/10 12:44:02;;;;;;;12.95;3.25;;;19.80;92.90;;;;;;5109512;27;20619;-77
2022/04/10 12:46:36;;;;;;;9.80;2.97;;;19.80;92.90;;;;;;5122466;27;20019;-77
2022/04/10 12:49:19;;;;;;;7.18;2.47;;;19.80;92.90;;;;;;5131015;27;20027;-77
2022/04/10 12:52:00;;;;;;;12.40;2.88;;;19.80;92.80;;;;;;5126637;27;20066;-75
2022/04/10 12:54:43;;;;;;;7.68;2.95;;;19.70;92.70;;;;;;5119615;27;20026;-77
2022/04/10 12:57:30;;;;;;;12.27;3.45;;;19.70;92.80;;;;;;5092903;27;20032;-76
2022/04/10 12:59:58;;;;;;;10.73;2.70;;;19.70;92.70;;;;;;5138043;27;20476;-78
2022/04/10 13:02:26;;;;;;;11.63;2.67;;;19.70;92.80;;;;;;5118920;27;20132;-78
2022/04/10 13:05:16;;;;;;;6.70;2.40;;;19.70;92.90;;;;;;5111110;28;20109;-79
2022/04/10 13:08:00;;;;;;;10.80;2.92;;;19.70;93.00;;;;;;5110446;28;20039;-77
2022/04/10 13:10:28;;;;;;;9.35;2.90;;;19.60;93.10;;;;;;5110557;28;20456;-77
2022/04/10 13:13:08;;;;;;;9.13;2.45;;;19.60;93.10;;;;;;5111419;28;20047;-78
2022/04/10 13:15:37;;;;;;;7.82;2.28;;;19.60;93.00;;;;;;5111134;28;20366;-78
2022/04/10 13:18:05;;;;;;;7.18;2.70;;;19.50;92.90;;;;;;5110408;28;20566;-78
2022/04/10 13:20:35;;;;;;;10.30;3.42;;;19.40;93.10;;;;;;5112610;28;20044;-78
2022/04/10 13:23:02;;;;;;;12.30;2.67;;;19.40;93.00;;;;;;5113445;28;20553;-78
2022/04/10 13:25:32;;;;;;;10.05;2.90;;;19.40;93.10;;;;;;5113871;28;20777;-78
2022/04/10 13:28:00;;;;;;;11.23;2.80;;;19.40;93.20;;;;;;5083799;28;20051;-78
2022/04/10 13:30:27;;;;;;;8.65;2.78;;;19.40;93.20;;;;;;5080894;28;20375;-78
2022/04/10 13:32:54;;;;;;;8.38;2.35;;;19.40;93.20;;;;;;5102740;28;20031;-78
2022/04/10 13:35:21;;;;;;;16.38;2.90;;;19.30;93.20;;;;;;5113486;28;20127;-79
2022/04/10 13:37:49;;;;;;;7.82;2.70;;;19.30;93.20;;;;;;5104262;28;20039;-79
2022/04/10 13:40:16;;;;;;;8.75;2.20;;;19.30;93.20;;;;;;5110234;28;20039;-77
2022/04/10 13:42:44;;;;;;;13.35;2.72;;;19.30;93.40;;;;;;5122580;28;20409;-77
2022/04/10 13:45:12;;;;;;;8.73;2.03;;;19.40;93.50;;;;;;5113165;27;20024;-75
2022/04/10 13:47:40;;;;;;;8.93;2.10;;;19.40;93.50;;;;;;5130301;27;20484;-76
2022/04/10 13:50:08;;;;;;;10.20;2.60;;;19.40;93.60;;;;;;5092097;28;20031;-77
2022/04/10 13:52:37;;;;;;;7.93;2.67;;;19.50;93.50;;;;;;5112588;28;20039;-77
2022/04/10 13:55:05;;;;;;;15.30;2.72;;;19.40;93.40;;;;;;5081355;28;20027;-76
2022/04/10 13:57:33;;;;;;;8.05;2.30;;;19.40;93.30;;;;;;5113096;27;20032;-76
2022/04/10 14:00:00;;;;;;;11.85;3.20;;;19.40;93.20;;;;;;5123188;27;20024;-77
2022/04/10 14:02:27;;;;;;;9.50;3.00;;;19.40;93.20;;;;;;5135253;27;20043;-77
2022/04/10 14:04:54;;;;;;;9.02;2.83;;;19.30;93.20;;;;;;5087908;28;20043;-77
2022/04/10 14:07:22;;;;;;;13.90;3.28;;;19.40;93.30;;;;;;5114348;28;20031;-77
2022/04/10 14:09:49;;;;;;;11.65;3.38;;;19.40;93.10;;;;;;5114046;28;20032;-77
2022/04/10 14:12:17;;;;;;;7.40;2.50;;;19.30;93.20;;;;;;5114008;27;20469;-76
2022/04/10 14:14:44;;;;;;;9.88;2.85;;;19.30;93.30;;;;;;5096413;28;20036;-77
2022/04/10 14:17:12;;;;;;;12.77;2.67;;;19.30;93.20;;;;;;5113973;28;20420;-76
2022/04/10 14:19:39;;;;;;;8.95;2.05;;;19.30;93.20;;;;;;5099145;27;20449;-77
2022/04/10 14:22:06;;;;;;;9.65;2.60;;;19.30;93.30;;;;;;5097991;28;20042;-77
2022/04/10 14:24:33;;;;;;;8.30;2.45;;;19.30;93.10;;;;;;5113767;28;20032;-77
2022/04/10 14:27:00;;;;;;;11.32;2.65;;;19.30;93.20;;;;;;5113695;28;20435;-78
2022/04/10 14:29:28;;;;;;;20.70;3.35;;;19.30;93.20;;;;;;5113516;28;20031;-77
2022/04/10 14:31:55;;;;;;;9.63;2.55;;;19.30;93.30;;;;;;5112913;28;20030;-76
2022/04/10 14:34:22;;;;;;;14.15;2.20;;;19.30;93.40;;;;;;5095607;28;20479;-76
2022/04/10 14:36:49;;;;;;;9.65;2.30;;;19.20;93.40;;;;;;5114589;28;20054;-77
2022/04/10 14:39:16;;;;;;;8.48;2.00;;;19.20;93.50;;;;;;5113844;28;20038;-77
2022/04/10 14:41:46;;;;;;;11.43;2.70;;;19.30;93.60;;;;;;5122217;27;20046;-77
2022/04/10 14:44:14;;;;;;;10.52;2.47;;;19.30;93.50;;;;;;5134923;27;20073;-77
2022/04/10 15:06:19;;;;;;;7.15;2.20;;;19.10;93.60;;;;;;5121314;27;20134;-78
2022/04/10 15:08:46;;;;;;;9.65;2.35;;;19.10;93.60;;;;;;5112522;27;20067;-77
2022/04/10 15:11:14;;;;;;;11.40;2.38;;;19.10;93.60;;;;;;5111873;28;20039;-78
2022/04/10 15:13:41;;;;;;;9.63;2.35;;;19.10;93.60;;;;;;5113114;28;20504;-78
2022/04/10 15:16:09;;;;;;;15.52;2.70;;;19.10;93.60;;;;;;5113481;28;20441;-78
2022/04/10 15:18:36;;;;;;;9.30;2.40;;;19.10;93.60;;;;;;5095283;28;20039;-78
2022/04/10 15:21:07;;;;;;;11.98;2.80;;;19.10;93.70;;;;;;5111583;28;20038;-78
2022/04/10 15:23:34;;;;;;;7.25;1.98;;;19.00;93.60;;;;;;5094746;28;20062;-76
2022/04/10 15:26:03;;;;;;;9.50;2.40;;;19.00;93.60;;;;;;5113308;28;20035;-78
2022/04/10 15:28:32;;;;;;;7.80;2.35;;;19.00;93.60;;;;;;5112863;27;20031;-76
2022/04/10 15:30:59;;;;;;;8.85;2.17;;;19.00;93.60;;;;;;5095155;28;20161;-76
2022/04/10 15:33:26;;;;;;;13.75;3.05;;;19.00;93.70;;;;;;5077625;28;20035;-76
2022/04/10 15:35:57;;;;;;;6.65;2.30;;;19.00;93.50;;;;;;5112954;28;20035;-77
2022/04/10 15:38:25;;;;;;;8.82;2.28;;;19.00;93.70;;;;;;5129105;27;20077;-77
2022/04/10 15:40:52;;;;;;;7.70;2.38;;;19.00;93.60;;;;;;5121305;27;20077;-76
2022/04/10 15:43:19;;;;;;;8.80;1.98;;;19.00;93.60;;;;;;5128858;27;20040;-77
2022/04/10 15:45:48;;;;;;;11.55;2.55;;;19.00;93.40;;;;;;5113232;27;20070;-77
2022/04/10 15:48:15;;;;;;;5.65;2.38;;;19.00;93.40;;;;;;5133686;27;20489;-77
2022/04/10 15:50:42;;;;;;;12.75;2.90;;;19.00;93.50;;;;;;5116623;27;20050;-76
2022/04/10 15:53:09;;;;;;;8.30;2.47;;;19.00;93.50;;;;;;5110267;27;20058;-76
2022/04/10 15:55:37;;;;;;;8.52;2.30;;;19.00;93.50;;;;;;5115295;27;20562;-77
2022/04/10 15:58:04;;;;;;;12.63;2.40;;;19.00;93.40;;;;;;5112313;28;20059;-77
2022/04/10 16:00:31;;;;;;;11.82;2.63;;;18.90;93.40;;;;;;5112238;28;20043;-77
2022/04/10 16:02:58;;;;;;;15.68;3.00;;;18.90;93.50;;;;;;5096459;28;20109;-77
2022/04/10 16:05:26;;;;;;;9.10;2.67;;;18.90;93.50;;;;;;5093872;28;20031;-76
2022/04/10 16:07:54;;;;;;;9.25;2.55;;;18.90;93.30;;;;;;5112351;28;20043;-77
2022/04/10 16:10:21;;;;;;;10.15;2.50;;;18.90;93.30;;;;;;5121791;27;20084;-77
2022/04/10 16:12:48;;;;;;;11.38;2.13;;;18.80;93.40;;;;;;5132260;27;20051;-77
2022/04/10 16:15:16;;;;;;;7.85;2.20;;;18.90;93.50;;;;;;5114076;27;20092;-77
2022/04/10 16:17:44;;;;;;;10.75;2.70;;;18.90;93.70;;;;;;5112235;28;20067;-77
2022/04/10 16:20:13;;;;;;;7.82;1.98;;;18.80;93.60;;;;;;5076572;28;20032;-77
2022/04/10 16:22:41;;;;;;;8.63;2.15;;;18.80;93.60;;;;;;5093831;28;20382;-77
2022/04/10 16:25:09;;;;;;;11.63;2.15;;;18.80;93.50;;;;;;5111652;28;20115;-77
2022/04/10 16:30:22;;;;;;;7.32;2.00;;;18.80;93.50;;;;;;5121577;27;20522;-76
2022/04/10 16:32:50;;;;;;;5.13;2.38;;;18.80;93.50;;;;;;5112112;27;20044;-77
2022/04/10 16:35:20;;;;;;;8.63;2.47;;;18.70;93.60;;;;;;5110557;28;20023;-76
2022/04/10 16:37:48;;;;;;;5.78;2.10;;;18.80;93.60;;;;;;5111986;28;20565;-77
2022/04/10 16:40:16;;;;;;;6.97;2.00;;;18.70;93.50;;;;;;5110782;28;20031;-77
2022/04/10 16:42:43;;;;;;;9.52;2.03;;;18.70;93.50;;;;;;5111391;28;20040;-77
2022/04/10 16:45:11;;;;;;;10.15;2.30;;;18.70;93.60;;;;;;5093482;28;20107;-77
2022/04/10 16:47:38;;;;;;;6.70;2.35;;;18.60;93.40;;;;;;5089430;27;20035;-77
2022/04/10 16:50:08;;;;;;;8.77;2.22;;;18.60;93.40;;;;;;5093497;28;20055;-77
2022/04/10 16:52:39;;;;;;;7.50;1.98;;;18.50;93.60;;;;;;5131224;27;20036;-77
2022/04/10 16:55:07;;;;;;;10.57;2.65;;;18.50;93.60;;;;;;5122875;27;20053;-77
2022/04/10 16:57:37;;;;;;;10.30;2.45;;;18.60;93.70;;;;;;5110868;28;20460;-77
2022/04/10 17:00:17;;;;;;;9.85;2.40;;;18.60;93.70;;;;;;5108785;28;20028;-77
2022/04/10 17:02:44;;;;;;;;;;;18.60;93.70;;;;;;5093794;28;20439;-77
2022/04/10 17:05:11;;;;;;;10.20;2.38;;;18.60;93.70;;;;;;5111381;28;19904;-77
2022/04/10 17:07:38;;;;;;;8.32;2.33;;;18.50;93.70;;;;;;5110773;28;20048;-77
2022/04/10 17:10:06;;;;;;;11.93;2.28;;;18.60;93.70;;;;;;5110433;28;20059;-76
2022/04/10 17:12:33;;;;;;;8.38;2.17;;;18.50;93.70;;;;;;5093050;28;20035;-77
2022/04/10 17:15:01;;;;;;;5.78;1.98;;;18.60;93.80;;;;;;5110964;28;20478;-77
2022/04/10 17:17:31;;;;;;;9.73;2.38;;;18.60;93.80;;;;;;5110721;28;20039;-77
2022/04/10 17:19:59;;;;;;;5.88;1.85;;;18.60;93.80;;;;;;5110209;28;20039;-77
2022/04/10 17:22:26;;;;;;;5.57;1.95;;;18.60;93.80;;;;;;5111146;28;20046;-77
2022/04/10 17:24:56;;;;;;;10.15;2.53;;;18.50;93.50;;;;;;5110482;28;20512;-77
2022/04/10 17:27:23;;;;;;;7.93;2.30;;;18.50;93.80;;;;;;5120986;28;20496;-77
2022/04/10 17:29:50;;;;;;;7.53;2.03;;;18.50;93.80;;;;;;5109860;28;20036;-77
2022/04/10 17:32:17;;;;;;;11.20;2.53;;;18.50;93.70;;;;;;5112900;28;20560;-77
2022/04/10 17:34:44;;;;;;;7.50;2.20;;;18.50;93.80;;;;;;5114008;28;20039;-77
2022/04/10 17:37:12;;;;;;;7.38;2.40;;;18.40;93.70;;;;;;5115286;27;20066;-77
2022/04/10 17:39:39;;;;;;;7.80;1.98;;;18.40;93.70;;;;;;5114082;28;20510;-77
2022/04/10 17:42:06;;;;;;;9.07;2.10;;;18.40;93.70;;;;;;5096353;28;20035;-77
2022/04/10 17:44:33;;;;;;;5.22;1.73;;;18.40;93.70;;;;;;5115160;28;20032;-76
2022/04/10 17:47:01;;;;;;;5.28;1.77;;;18.30;93.70;;;;;;5114702;28;20036;-77
2022/04/10 17:49:28;;;;;;;13.27;2.40;;;18.30;93.60;;;;;;5097939;28;20059;-77
2022/04/10 17:51:55;;;;;;;12.40;2.33;;;18.30;93.70;;;;;;5115087;27;20028;-77
2022/04/10 17:54:23;;;;;;;9.85;2.10;;;18.30;93.90;;;;;;5107117;28;20035;-77
2022/04/10 17:56:50;;;;;;;7.10;1.70;;;18.30;93.90;;;;;;5131669;27;20027;-77
2022/04/10 17:59:17;;;;;;;10.50;2.00;;;18.30;93.90;;;;;;5134627;27;20488;-77
2022/04/10 18:01:44;;;;;;;6.43;2.10;;;18.30;93.80;;;;;;5134992;27;20499;-76
2022/04/10 18:04:11;;;;;;;9.55;2.30;;;18.30;93.90;;;;;;5097596;28;20042;-77
2022/04/10 18:06:39;;;;;;;12.90;2.40;;;18.30;93.80;;;;;;5120880;27;20043;-76
2022/04/10 18:09:06;;;;;;;8.02;1.65;;;18.30;93.80;;;;;;5135267;27;20041;-77
2022/04/10 18:11:34;;;;;;;7.18;1.83;;;18.30;93.90;;;;;;5096727;28;20058;-76
2022/04/10 18:14:01;;;;;;;11.07;2.15;;;18.30;93.90;;;;;;5114712;28;20031;-77
2022/04/10 18:16:29;;;;;;;8.50;2.08;;;18.30;94.00;;;;;;5096158;28;20035;-77
2022/04/10 18:18:56;;;;;;;8.25;1.80;;;18.30;93.90;;;;;;5113816;28;20023;-77
2022/04/10 18:21:24;;;;;;;5.43;1.90;;;18.30;93.80;;;;;;5115676;27;20036;-76
2022/04/10 18:23:51;;;;;;;9.70;1.95;;;18.30;93.90;;;;;;5114574;27;20141;-76
2022/04/10 18:26:19;;;;;;;7.30;2.00;;;18.30;93.90;;;;;;5113915;28;20112;-76
2022/04/10 18:28:47;;;;;;;10.57;2.33;;;18.30;94.00;;;;;;5112771;28;20032;-75
2022/04/10 18:31:16;;;;;;;11.40;2.10;;;18.30;93.90;;;;;;5105621;28;20032;-76
2022/04/10 18:33:44;;;;;;;6.05;2.08;;;18.30;93.90;;;;;;5115909;27;20389;-76
2022/04/10 18:36:11;;;;;;;7.30;2.30;;;18.30;94.00;;;;;;5114205;27;20046;-76